createdAt,value
2022-08-24T00:04:23.752Z,18.52
2022-08-24T00:09:27.911Z,13.85
2022-08-24T00:14:33.397Z,18.42
2022-08-24T00:19:37.139Z,19.95
2022-08-24T00:24:41.613Z,21.75
2022-08-24T00:29:46.728Z,19.27
2022-08-24T00:34:58.930Z,20.12
2022-08-24T00:40:03.730Z,19.00
2022-08-24T00:45:12.111Z,19.12
2022-08-24T00:50:20.419Z,20.52
2022-08-24T00:55:30.483Z,18.17
2022-08-24T01:00:42.936Z,18.65
2022-08-24T01:05:52.561Z,14.77
2022-08-24T01:11:02.566Z,15.98
2022-08-24T01:16:09.687Z,20.45
2022-08-24T01:21:19.066Z,15.63
2022-08-24T01:26:29.235Z,19.45
2022-08-24T01:31:34.650Z,15.23
2022-08-24T01:36:40.258Z,16.25
2022-08-24T01:41:45.428Z,17.45
2022-08-24T01:46:53.718Z,18.85
2022-08-24T01:51:58.743Z,16.15
2022-08-24T01:57:04.602Z,16.33
2022-08-24T02:02:15.375Z,21.30
2022-08-24T02:07:19.680Z,16.23
2022-08-24T02:12:24.999Z,17.70
2022-08-24T02:17:29.148Z,17.75
2022-08-24T02:22:32.966Z,16.52
2022-08-24T02:27:38.199Z,17.65
2022-08-24T02:32:42.010Z,17.70
2022-08-24T02:37:45.865Z,14.93
2022-08-24T02:42:51.488Z,18.25
2022-08-24T02:47:55.328Z,17.02
2022-08-24T02:52:59.535Z,17.05
2022-08-24T02:58:04.819Z,15.07
2022-08-24T03:03:10.205Z,14.57
2022-08-24T03:08:14.174Z,19.12
2022-08-24T03:13:19.881Z,19.23
2022-08-24T03:18:25.796Z,16.12
2022-08-24T03:23:31.988Z,19.35
2022-08-24T03:33:43.763Z,20.00
2022-08-24T03:38:47.872Z,17.12
2022-08-24T03:43:56.037Z,18.73
2022-08-24T03:49:00.574Z,16.23
2022-08-24T03:54:07.450Z,17.67
2022-08-24T03:59:12.724Z,17.00
2022-08-24T04:04:16.836Z,14.95
2022-08-24T04:09:20.568Z,15.30
2022-08-24T04:14:27.694Z,19.00
2022-08-24T04:19:32.474Z,20.65
2022-08-24T04:24:36.631Z,18.98
2022-08-24T04:29:41.687Z,16.85
2022-08-24T04:34:47.028Z,16.17
2022-08-24T04:39:51.390Z,18.52
2022-08-24T04:44:57.654Z,17.52
2022-08-24T04:50:01.466Z,20.50
2022-08-24T04:55:07.680Z,18.73
2022-08-24T05:00:14.340Z,18.17
2022-08-24T05:05:18.961Z,20.92
2022-08-24T05:10:23.137Z,25.50
2022-08-24T05:15:28.407Z,24.87
2022-08-24T05:20:32.255Z,23.67
2022-08-24T05:25:36.504Z,27.20
2022-08-24T05:30:42.867Z,24.08
2022-08-24T05:35:47.671Z,36.25
2022-08-24T05:40:51.898Z,24.15
2022-08-24T05:45:59.472Z,22.17
2022-08-24T05:51:03.323Z,25.45
2022-08-24T05:56:09.647Z,24.77
2022-08-24T06:01:17.859Z,28.70
2022-08-24T06:06:23.394Z,30.37
2022-08-24T06:11:31.839Z,26.95
2022-08-24T06:16:38.715Z,33.33
2022-08-24T06:21:46.785Z,33.38
2022-08-24T06:27:20.244Z,25.25
2022-08-24T06:32:25.858Z,32.03
2022-08-24T06:37:29.838Z,27.60
2022-08-24T06:42:34.382Z,23.73
2022-08-24T06:47:39.891Z,34.45
2022-08-24T06:52:44.037Z,27.45
2022-08-24T06:57:52.332Z,28.80
2022-08-24T07:02:58.156Z,35.15
2022-08-24T07:08:03.603Z,29.95
2022-08-24T07:13:07.686Z,26.12
2022-08-24T07:18:14.897Z,27.65
2022-08-24T07:23:20.684Z,26.52
2022-08-24T07:28:31.571Z,27.50
2022-08-24T07:33:38.588Z,25.42
2022-08-24T07:38:42.747Z,19.40
2022-08-24T07:43:47.586Z,22.08
2022-08-24T07:49:00.201Z,20.92
2022-08-24T07:54:16.367Z,16.87
2022-08-24T07:59:20.423Z,21.27
2022-08-24T08:04:28.207Z,26.12
2022-08-24T08:09:32.528Z,19.67
2022-08-24T08:14:37.485Z,18.25
2022-08-24T08:19:43.887Z,24.05
2022-08-24T08:24:47.983Z,11.93
2022-08-24T08:29:52.622Z,20.83
2022-08-24T08:35:01.592Z,10.60
2022-08-24T08:40:12.555Z,16.75
2022-08-24T08:45:31.905Z,11.88
2022-08-24T08:51:03.238Z,12.55
2022-08-24T08:56:14.674Z,5.85
2022-08-24T09:01:32.643Z,14.73
2022-08-24T09:06:56.566Z,9.30
2022-08-24T09:12:09.931Z,11.18
2022-08-24T09:17:29.579Z,10.48
2022-08-24T09:22:39.840Z,11.38
2022-08-24T09:28:08.251Z,8.57
2022-08-24T09:33:21.215Z,8.70
2022-08-24T09:38:42.788Z,7.45
2022-08-24T09:44:28.050Z,10.40
2022-08-24T09:50:12.559Z,4.50
2022-08-24T09:55:53.088Z,9.85
2022-08-24T10:01:09.783Z,5.87
2022-08-24T10:06:23.735Z,4.87
2022-08-24T10:11:37.372Z,6.35
2022-08-24T10:16:53.440Z,4.22
2022-08-24T10:22:04.362Z,7.78
2022-08-24T10:27:24.559Z,4.37
2022-08-24T10:32:54.374Z,3.72
2022-08-24T10:38:33.451Z,2.45
2022-08-24T10:44:06.151Z,7.40
2022-08-24T10:49:44.507Z,7.85
2022-08-24T10:54:48.725Z,5.90
2022-08-24T11:00:00.786Z,3.05
2022-08-24T11:05:09.599Z,4.62
2022-08-24T11:10:25.561Z,3.45
2022-08-24T11:15:31.736Z,4.20
2022-08-24T11:20:42.707Z,4.10
2022-08-24T11:25:56.151Z,3.80
2022-08-24T11:31:01.588Z,3.50
2022-08-24T11:36:20.931Z,6.30
2022-08-24T11:41:32.436Z,3.53
2022-08-24T11:46:46.876Z,2.62
2022-08-24T11:51:58.784Z,2.65
2022-08-24T11:57:10.510Z,1.85
2022-08-24T12:02:23.671Z,1.30
2022-08-24T12:07:42.907Z,1.33
2022-08-24T12:12:53.409Z,1.80
2022-08-24T12:18:05.081Z,4.45
2022-08-24T12:23:19.000Z,1.50
2022-08-24T12:28:28.925Z,3.28
2022-08-24T12:33:37.561Z,2.72
2022-08-24T12:38:47.195Z,5.93
2022-08-24T12:43:54.781Z,1.77
2022-08-24T12:49:04.144Z,4.15
2022-08-24T12:54:25.031Z,2.72
2022-08-24T12:59:31.842Z,5.35
2022-08-24T13:04:40.336Z,5.60
2022-08-24T13:09:48.448Z,2.53
2022-08-24T13:14:53.329Z,3.33
2022-08-24T13:20:19.472Z,2.35
2022-08-24T13:25:43.609Z,3.72
2022-08-24T13:30:59.146Z,2.85
2022-08-24T13:36:47.967Z,4.53
2022-08-24T13:42:10.110Z,4.07
2022-08-24T13:47:20.820Z,3.75
2022-08-24T13:52:38.556Z,2.78
2022-08-24T13:57:46.671Z,4.00
2022-08-24T14:03:03.179Z,2.53
2022-08-24T14:08:26.586Z,5.18
2022-08-24T14:13:47.931Z,2.87
2022-08-24T14:19:08.027Z,3.65
2022-08-24T14:24:25.077Z,3.35
2022-08-24T14:29:49.247Z,2.20
2022-08-24T14:35:04.062Z,2.17
2022-08-24T14:40:17.456Z,2.58
2022-08-24T14:45:27.764Z,4.20
2022-08-24T14:50:39.311Z,4.18
2022-08-24T14:55:54.512Z,2.87
2022-08-24T15:01:25.918Z,2.92
2022-08-24T15:06:37.957Z,1.42
2022-08-24T15:11:42.617Z,4.68
2022-08-24T15:16:54.313Z,4.55
2022-08-24T15:22:03.867Z,10.57
2022-08-24T15:27:15.959Z,3.15
2022-08-24T15:32:28.030Z,2.62
2022-08-24T15:37:36.377Z,17.85
2022-08-24T15:42:40.229Z,1.35
2022-08-24T15:47:58.387Z,3.60
2022-08-24T15:53:04.988Z,2.15
2022-08-24T15:58:31.748Z,3.67
2022-08-24T16:08:59.504Z,1.83
2022-08-24T16:14:03.837Z,5.78
2022-08-24T16:19:21.712Z,4.28
2022-08-24T16:24:30.880Z,2.10
2022-08-24T16:29:46.116Z,3.50
2022-08-24T16:34:54.246Z,3.95
2022-08-24T16:39:58.052Z,2.30
2022-08-24T16:45:02.203Z,6.97
2022-08-24T16:50:08.379Z,6.25
2022-08-24T16:55:14.501Z,5.60
2022-08-24T17:00:21.986Z,3.40
2022-08-24T17:05:28.344Z,2.10
2022-08-24T17:10:34.987Z,2.73
2022-08-24T17:15:41.743Z,2.78
2022-08-24T17:20:47.744Z,4.10
2022-08-24T17:25:53.901Z,4.47
2022-08-24T17:30:57.819Z,1.35
2022-08-24T17:36:05.329Z,3.03
2022-08-24T17:41:09.272Z,1.40
2022-08-24T17:46:18.506Z,1.70
2022-08-24T17:51:23.659Z,2.70
2022-08-24T17:56:30.999Z,1.30
2022-08-24T18:01:34.853Z,5.57
2022-08-24T18:06:40.051Z,5.78
2022-08-24T18:11:43.873Z,3.22
2022-08-24T18:16:53.986Z,7.90
2022-08-24T18:22:01.016Z,3.08
2022-08-24T18:27:10.385Z,2.67
2022-08-24T18:32:15.004Z,2.80
2022-08-24T18:37:20.247Z,2.50
2022-08-24T18:42:26.370Z,6.53
2022-08-24T18:47:30.191Z,5.32
2022-08-24T18:52:35.971Z,7.87
2022-08-24T18:57:39.736Z,5.32
2022-08-24T19:02:43.815Z,2.22
2022-08-24T19:07:52.268Z,3.17
2022-08-24T19:12:58.954Z,6.03
2022-08-24T19:18:03.080Z,3.23
2022-08-24T19:23:14.076Z,5.40
2022-08-24T19:28:18.322Z,1.75
2022-08-24T19:33:25.787Z,2.00
2022-08-24T19:38:31.082Z,8.05
2022-08-24T19:43:35.360Z,1.87
2022-08-24T19:48:40.616Z,4.18
2022-08-24T19:53:45.807Z,3.58
2022-08-24T19:58:53.426Z,3.30
2022-08-24T20:03:57.216Z,4.25
2022-08-24T20:09:04.021Z,4.28
2022-08-24T20:14:08.259Z,3.87
2022-08-24T20:19:13.007Z,6.65
2022-08-24T20:24:18.084Z,3.00
2022-08-24T20:29:21.838Z,2.92
2022-08-24T20:34:25.529Z,8.07
2022-08-24T20:39:30.638Z,4.47
2022-08-24T20:44:34.517Z,5.45
2022-08-24T20:49:38.410Z,4.55
2022-08-24T20:54:43.510Z,7.70
2022-08-24T20:59:47.664Z,6.28
2022-08-24T21:04:51.429Z,3.42
2022-08-24T21:09:57.384Z,7.78
2022-08-24T21:15:01.107Z,5.70
2022-08-24T21:20:05.604Z,3.70
2022-08-24T21:25:11.484Z,7.60
2022-08-24T21:30:18.030Z,3.47
2022-08-24T21:35:22.525Z,6.75
2022-08-24T21:40:28.917Z,5.22
2022-08-24T21:45:32.866Z,3.62
2022-08-24T21:50:36.629Z,5.50
2022-08-24T21:55:42.559Z,3.75
2022-08-24T22:00:46.305Z,7.28
2022-08-24T22:05:50.354Z,4.70
2022-08-24T22:10:55.464Z,3.33
2022-08-24T22:15:59.423Z,4.15
2022-08-24T22:21:07.091Z,6.55
2022-08-24T22:26:12.830Z,4.78
2022-08-24T22:31:19.554Z,11.23
2022-08-24T22:36:25.614Z,6.95
2022-08-24T22:41:30.895Z,4.57
2022-08-24T22:46:36.955Z,6.62
2022-08-24T22:51:41.752Z,3.90
2022-08-24T22:56:48.785Z,6.05
2022-08-24T23:01:54.475Z,6.32
2022-08-24T23:06:58.229Z,6.40
2022-08-24T23:12:03.614Z,4.28
2022-08-24T23:17:07.434Z,4.00
2022-08-24T23:22:13.355Z,4.90
2022-08-24T23:27:19.782Z,7.68
2022-08-24T23:32:23.927Z,6.45
2022-08-24T23:37:27.781Z,5.05
2022-08-24T23:42:32.895Z,5.37
2022-08-24T23:47:36.702Z,4.53
2022-08-24T23:52:41.356Z,7.85
2022-08-24T23:57:46.473Z,8.68
